Time;durP1;ratioP1;P1;durP2;ratioP2;P2;SDS_P1;SDS_P2;PMS_P1;PMS_P2;Temp;Humidity;BMP_temperature;BMP_pressure;BME280_temperature;BME280_humidity;BME280_pressure;Samples;Min_cycle;Max_cycle;Signal;HPM_P1;HPM_P2
2023/06/11 00:00:11;;;;;;;14.23;5.60;;;19.80;99.90;;;;;;5042677;28;20037;-79
2023/06/11 00:02:41;;;;;;;13.60;5.35;;;19.70;99.90;;;;;;5042390;28;20073;-79
2023/06/11 00:05:09;;;;;;;10.25;5.53;;;20.40;99.90;;;;;;5039698;28;20033;-80
2023/06/11 00:07:38;;;;;;;11.20;5.15;;;19.70;99.90;;;;;;5038366;28;20048;-78
2023/06/11 00:10:07;;;;;;;8.25;5.20;;;19.70;99.90;;;;;;5043288;28;20038;-78
2023/06/11 00:12:33;;;;;;;13.63;5.38;;;19.70;99.90;;;;;;5043691;28;20055;-79
2023/06/11 00:15:02;;;;;;;13.30;5.00;;;19.60;99.90;;;;;;5041545;28;20045;-79
2023/06/11 00:17:28;;;;;;;9.43;5.53;;;19.50;99.90;;;;;;5037247;28;20490;-79
2023/06/11 00:19:54;;;;;;;10.63;5.13;;;19.50;99.90;;;;;;5042677;28;20067;-79
2023/06/11 00:22:20;;;;;;;14.85;5.55;;;19.40;99.90;;;;;;5039458;28;20049;-79
2023/06/11 00:24:46;;;;;;;12.88;5.85;;;19.40;99.90;;;;;;5040492;28;20037;-79
2023/06/11 00:27:11;;;;;;;8.63;4.72;;;19.30;99.90;;;;;;5043422;28;20043;-80
2023/06/11 00:29:37;;;;;;;10.88;5.47;;;19.30;99.90;;;;;;5036120;28;20401;-79
2023/06/11 00:32:03;;;;;;;9.50;5.38;;;19.20;99.90;;;;;;5040762;28;20128;-79
2023/06/11 00:34:28;;;;;;;12.48;6.07;;;19.10;99.90;;;;;;5043071;28;20457;-79
2023/06/11 00:36:54;;;;;;;8.55;5.30;;;19.10;99.90;;;;;;5042149;28;20135;-79
2023/06/11 00:39:20;;;;;;;11.13;5.93;;;19.00;99.90;;;;;;5038173;28;20077;-79
2023/06/11 00:41:48;;;;;;;11.88;5.53;;;20.20;99.90;;;;;;5039380;28;20140;-80
2023/06/11 00:44:21;;;;;;;11.80;5.68;;;18.90;99.90;;;;;;5039362;28;20485;-80
2023/06/11 00:46:48;;;;;;;10.60;5.43;;;18.90;99.90;;;;;;5048113;28;20045;-80
2023/06/11 00:49:17;;;;;;;8.57;4.90;;;18.90;99.90;;;;;;5040923;28;20052;-80
2023/06/11 00:51:45;;;;;;;12.18;5.85;;;18.90;99.90;;;;;;5024980;28;20087;-79
2023/06/11 00:54:12;;;;;;;11.48;5.70;;;18.80;99.90;;;;;;5039871;28;20053;-79
2023/06/11 00:56:47;;;;;;;10.30;5.47;;;18.90;99.90;;;;;;5037715;28;20537;-79
2023/06/11 00:59:15;;;;;;;11.65;6.30;;;18.80;99.90;;;;;;5047496;28;20378;-80
2023/06/11 01:02:08;;;;;;;8.60;5.35;;;18.80;99.90;;;;;;5038328;28;20063;-79
2023/06/11 01:04:36;;;;;;;11.07;5.68;;;18.70;99.90;;;;;;5044384;28;20048;-79
2023/06/11 01:07:06;;;;;;;9.07;5.72;;;18.70;99.90;;;;;;5048002;28;20050;-79
2023/06/11 01:09:33;;;;;;;8.73;5.07;;;18.70;99.90;;;;;;5037968;28;20131;-80
2023/06/11 01:11:59;;;;;;;8.68;5.80;;;18.70;99.90;;;;;;5046020;28;20049;-79
2023/06/11 01:14:25;;;;;;;7.65;5.47;;;18.60;99.90;;;;;;5043689;28;20037;-79
2023/06/11 01:17:02;;;;;;;15.13;6.40;;;18.60;99.90;;;;;;5041919;28;20056;-79
2023/06/11 01:19:55;;;;;;;10.18;5.60;;;18.60;99.90;;;;;;5042781;28;20041;-79
2023/06/11 01:22:31;;;;;;;7.90;5.95;;;18.60;99.90;;;;;;5038915;28;20043;-78
2023/06/11 01:25:46;;;;;;;9.27;5.90;;;18.60;99.90;;;;;;5038636;28;20540;-79
2023/06/11 01:28:24;;;;;;;6.07;5.10;;;18.60;99.90;;;;;;5004997;28;20078;-79
2023/06/11 01:30:52;;;;;;;7.43;5.35;;;19.30;99.90;;;;;;4987058;28;20050;-79
2023/06/11 01:33:18;;;;;;;9.13;5.07;;;18.60;99.90;;;;;;5024399;28;20132;-79
2023/06/11 01:35:46;;;;;;;7.97;5.53;;;18.50;99.90;;;;;;5046223;28;20382;-79
2023/06/11 01:38:13;;;;;;;10.32;5.60;;;18.50;99.90;;;;;;5038722;28;20103;-79
2023/06/11 01:40:39;;;;;;;10.93;5.43;;;18.60;99.90;;;;;;5037088;28;20427;-79
2023/06/11 01:43:05;;;;;;;11.38;5.22;;;18.60;99.90;;;;;;5046856;28;20048;-79
2023/06/11 01:45:36;;;;;;;7.82;6.05;;;19.40;99.90;;;;;;5043292;28;20041;-78
2023/06/11 01:48:02;;;;;;;7.13;5.50;;;19.50;99.90;;;;;;5040889;28;20041;-79
2023/06/11 01:50:28;;;;;;;9.88;5.60;;;18.60;99.90;;;;;;5043376;28;20044;-80
2023/06/11 01:52:54;;;;;;;9.52;5.95;;;18.50;99.90;;;;;;5041197;28;20052;-80
2023/06/11 01:55:19;;;;;;;9.77;6.30;;;18.50;99.90;;;;;;5036880;28;20040;-79
2023/06/11 01:57:46;;;;;;;8.18;5.22;;;18.40;99.90;;;;;;5045951;28;20516;-80
2023/06/11 02:00:12;;;;;;;10.38;5.78;;;18.40;99.90;;;;;;5037369;28;20477;-80
2023/06/11 02:02:40;;;;;;;9.63;5.72;;;18.40;99.90;;;;;;5044016;28;20040;-80
2023/06/11 02:05:07;;;;;;;7.22;5.65;;;18.40;99.90;;;;;;5039785;28;20128;-79
2023/06/11 02:07:33;;;;;;;6.95;5.90;;;18.40;99.90;;;;;;5043020;28;20127;-80
2023/06/11 02:09:58;;;;;;;8.63;6.03;;;18.60;99.90;;;;;;5041752;28;20488;-80
2023/06/11 02:12:24;;;;;;;5.80;5.20;;;18.30;99.90;;;;;;5023731;28;20443;-80
2023/06/11 02:14:50;;;;;;;6.60;5.70;;;18.30;99.90;;;;;;5041288;28;20033;-80
2023/06/11 02:17:15;;;;;;;6.70;5.90;;;18.20;99.90;;;;;;5038274;28;20041;-80
2023/06/11 02:19:41;;;;;;;7.68;6.10;;;18.20;99.90;;;;;;5044518;28;20068;-80
2023/06/11 02:22:07;;;;;;;10.75;5.57;;;18.10;99.90;;;;;;5038762;28;20058;-79
2023/06/11 02:24:32;;;;;;;6.45;5.85;;;18.10;99.90;;;;;;5043023;28;20457;-80
2023/06/11 02:26:58;;;;;;;7.10;5.93;;;18.10;99.90;;;;;;5040508;28;20045;-80
2023/06/11 02:29:23;;;;;;;6.40;5.82;;;18.10;99.90;;;;;;5041218;28;20531;-80
2023/06/11 02:31:49;;;;;;;11.10;6.63;;;18.10;99.90;;;;;;5040744;28;20044;-80
2023/06/11 02:34:15;;;;;;;8.23;7.25;;;18.00;99.90;;;;;;5038282;28;20067;-80
2023/06/11 02:36:40;;;;;;;9.25;6.88;;;18.00;99.90;;;;;;5019397;28;20505;-80
2023/06/11 02:39:06;;;;;;;11.80;6.97;;;18.60;99.90;;;;;;5045633;28;20438;-79
2023/06/11 02:41:33;;;;;;;13.35;7.05;;;18.00;99.90;;;;;;5041906;28;20110;-79
2023/06/11 02:43:59;;;;;;;8.38;6.38;;;18.00;99.90;;;;;;5039372;28;20045;-80
2023/06/11 02:46:24;;;;;;;8.25;7.32;;;17.90;99.90;;;;;;5040806;28;20473;-81
2023/06/11 02:48:50;;;;;;;7.10;6.50;;;17.90;99.90;;;;;;5040434;28;20048;-80
2023/06/11 02:51:16;;;;;;;9.88;6.97;;;17.90;99.90;;;;;;5038156;28;20401;-80
2023/06/11 02:53:43;;;;;;;7.78;6.70;;;17.90;99.90;;;;;;5042911;28;20098;-80
2023/06/11 02:56:09;;;;;;;10.68;7.13;;;17.80;99.90;;;;;;5037308;28;20100;-80
2023/06/11 02:58:34;;;;;;;12.05;6.70;;;17.80;99.90;;;;;;5042651;28;20710;-80
2023/06/11 03:01:00;;;;;;;12.07;6.70;;;17.80;99.90;;;;;;5040549;28;20443;-79
2023/06/11 03:03:26;;;;;;;7.22;6.53;;;18.40;99.90;;;;;;5045923;28;20080;-80
2023/06/11 03:05:51;;;;;;;9.23;6.95;;;17.80;99.90;;;;;;5040080;28;20123;-79
2023/06/11 03:08:17;;;;;;;9.18;7.15;;;17.70;99.90;;;;;;5038808;28;20048;-79
2023/06/11 03:10:42;;;;;;;7.60;6.80;;;17.70;99.90;;;;;;5050260;28;20037;-79
2023/06/11 03:13:08;;;;;;;10.00;7.30;;;18.20;99.90;;;;;;5045624;28;20031;-79
2023/06/11 03:15:34;;;;;;;7.53;6.82;;;19.10;99.90;;;;;;5043026;28;20388;-79
2023/06/11 03:17:59;;;;;;;7.65;6.40;;;18.00;99.90;;;;;;5038768;28;20043;-79
2023/06/11 03:20:25;;;;;;;8.55;6.55;;;17.60;99.90;;;;;;5040402;28;20053;-80
2023/06/11 03:22:51;;;;;;;7.15;6.47;;;17.80;99.90;;;;;;5040356;28;20072;-80
2023/06/11 03:25:16;;;;;;;12.05;6.43;;;17.60;99.90;;;;;;5036451;28;20051;-80
2023/06/11 03:27:42;;;;;;;7.05;6.45;;;17.60;99.90;;;;;;5042823;28;20079;-80
2023/06/11 03:30:08;;;;;;;6.97;6.35;;;17.50;99.90;;;;;;5039376;28;20044;-79
2023/06/11 03:32:33;;;;;;;8.13;6.55;;;17.50;99.90;;;;;;5039793;28;20045;-80
2023/06/11 03:34:59;;;;;;;10.55;6.85;;;17.50;99.90;;;;;;5039330;28;20053;-81
2023/06/11 03:37:25;;;;;;;8.02;6.18;;;17.50;99.90;;;;;;5036183;28;20514;-80
2023/06/11 03:39:51;;;;;;;9.93;7.20;;;17.50;99.90;;;;;;5043982;28;20045;-81
2023/06/11 03:42:17;;;;;;;9.57;6.45;;;18.50;99.90;;;;;;5038071;28;20166;-80
2023/06/11 03:44:42;;;;;;;8.32;7.60;;;17.50;99.90;;;;;;5041934;28;20040;-80
2023/06/11 03:47:08;;;;;;;7.35;6.65;;;17.50;99.90;;;;;;5039803;28;20465;-81
2023/06/11 03:49:35;;;;;;;8.10;7.28;;;17.50;99.90;;;;;;5041440;28;20523;-79
2023/06/11 03:52:01;;;;;;;12.60;7.32;;;17.50;99.90;;;;;;5039490;28;20088;-79
2023/06/11 03:54:27;;;;;;;9.95;7.25;;;17.50;99.90;;;;;;5036991;28;20305;-79
2023/06/11 03:56:52;;;;;;;9.82;7.28;;;17.50;99.90;;;;;;5045267;28;20511;-79
2023/06/11 03:59:18;;;;;;;10.10;7.15;;;17.40;99.90;;;;;;5037996;28;20123;-79
2023/06/11 04:01:44;;;;;;;9.02;7.32;;;17.40;99.90;;;;;;5042651;28;20044;-79
2023/06/11 04:04:09;;;;;;;8.85;7.15;;;17.50;99.90;;;;;;5037986;28;20060;-79
2023/06/11 04:06:36;;;;;;;7.90;7.00;;;17.90;99.90;;;;;;5040299;28;20045;-79
2023/06/11 04:09:02;;;;;;;8.15;7.45;;;18.10;99.90;;;;;;5040442;28;20037;-78
2023/06/11 04:11:28;;;;;;;8.70;7.90;;;17.50;99.90;;;;;;5036751;28;20049;-78
2023/06/11 04:13:54;;;;;;;9.05;7.75;;;18.40;99.90;;;;;;5043462;28;20102;-79
2023/06/11 04:16:19;;;;;;;7.55;6.78;;;17.50;99.90;;;;;;5037079;28;20037;-79
2023/06/11 04:18:47;;;;;;;9.15;7.00;;;17.70;99.90;;;;;;5043013;28;20045;-79
2023/06/11 04:21:13;;;;;;;7.78;7.07;;;17.50;99.90;;;;;;5038837;28;20056;-79
2023/06/11 04:23:39;;;;;;;20.80;7.07;;;17.50;99.90;;;;;;5044106;28;20094;-77
2023/06/11 04:26:07;;;;;;;10.63;7.63;;;17.50;99.90;;;;;;5045295;28;20055;-79
2023/06/11 04:28:35;;;;;;;8.02;7.15;;;17.50;99.90;;;;;;5044066;28;20040;-79
2023/06/11 04:31:01;;;;;;;8.20;7.40;;;17.60;99.90;;;;;;5044183;28;20405;-80
2023/06/11 04:33:33;;;;;;;7.80;7.10;;;17.70;99.90;;;;;;5039620;28;20034;-79
2023/06/11 04:36:04;;;;;;;7.68;6.60;;;17.60;99.90;;;;;;5047643;28;20136;-79
2023/06/11 04:38:30;;;;;;;8.57;7.53;;;17.60;99.90;;;;;;5041891;28;20046;-78
2023/06/11 04:40:56;;;;;;;9.48;7.30;;;17.60;99.90;;;;;;5047667;28;20076;-79
2023/06/11 04:43:23;;;;;;;10.57;8.32;;;17.60;99.90;;;;;;5041922;28;20061;-79
2023/06/11 04:45:55;;;;;;;7.70;7.00;;;17.70;99.90;;;;;;5047236;28;20116;-79
2023/06/11 04:48:27;;;;;;;9.13;7.53;;;17.70;99.90;;;;;;5040844;28;20107;-79
2023/06/11 04:50:54;;;;;;;10.80;7.70;;;17.70;99.90;;;;;;5049094;28;20060;-79
2023/06/11 04:53:24;;;;;;;7.97;7.28;;;18.90;99.90;;;;;;5050580;28;20072;-79
2023/06/11 04:55:51;;;;;;;11.05;7.93;;;17.70;99.90;;;;;;5052381;28;20045;-79
2023/06/11 04:58:20;;;;;;;8.90;7.78;;;17.80;99.90;;;;;;5041701;28;20045;-80
2023/06/11 05:00:47;;;;;;;8.82;7.85;;;17.80;99.90;;;;;;5045411;28;20049;-78
2023/06/11 05:03:19;;;;;;;11.50;7.90;;;17.90;99.90;;;;;;5042441;28;20049;-79
2023/06/11 05:05:51;;;;;;;8.88;8.05;;;17.90;99.90;;;;;;5044370;28;20041;-80
2023/06/11 05:08:21;;;;;;;9.80;7.50;;;17.90;99.90;;;;;;5042687;28;20808;-80
2023/06/11 05:10:47;;;;;;;8.77;7.72;;;17.90;99.90;;;;;;5043874;28;20083;-79
2023/06/11 05:13:14;;;;;;;11.85;8.75;;;17.90;99.90;;;;;;5043099;28;20049;-78
2023/06/11 05:15:40;;;;;;;10.00;7.93;;;18.10;99.90;;;;;;5043348;28;20044;-79
2023/06/11 05:18:06;;;;;;;9.57;7.63;;;18.00;99.90;;;;;;5041408;28;20534;-79
2023/06/11 05:20:32;;;;;;;10.02;7.97;;;18.10;99.90;;;;;;5040116;28;20056;-78
2023/06/11 05:23:02;;;;;;;8.60;7.70;;;18.10;99.90;;;;;;5044532;28;20473;-80
2023/06/11 05:25:29;;;;;;;8.90;7.78;;;18.10;99.90;;;;;;5039669;28;20484;-79
2023/06/11 05:27:58;;;;;;;9.75;8.15;;;18.10;99.90;;;;;;5045304;28;20079;-79
2023/06/11 05:30:25;;;;;;;9.13;8.27;;;18.20;99.90;;;;;;5041239;28;20133;-80
2023/06/11 05:32:55;;;;;;;11.48;8.10;;;18.90;99.90;;;;;;5044909;28;20049;-79
2023/06/11 05:35:20;;;;;;;13.98;7.45;;;18.30;99.90;;;;;;5039797;28;20038;-79
2023/06/11 05:37:46;;;;;;;8.88;7.68;;;18.60;99.90;;;;;;5041753;28;20115;-79
2023/06/11 05:40:13;;;;;;;9.75;8.30;;;18.40;99.90;;;;;;5041812;28;20045;-79
2023/06/11 05:42:39;;;;;;;8.85;7.97;;;19.10;99.90;;;;;;5040450;28;20055;-79
2023/06/11 05:45:06;;;;;;;11.13;8.13;;;19.10;99.90;;;;;;5041595;28;20049;-79
2023/06/11 05:47:32;;;;;;;8.95;7.93;;;18.50;99.90;;;;;;5037784;28;20045;-79
2023/06/11 05:49:58;;;;;;;9.65;8.25;;;18.50;99.90;;;;;;5037714;28;20045;-80
2023/06/11 05:52:24;;;;;;;11.35;8.60;;;18.50;99.90;;;;;;5045800;28;20078;-79
2023/06/11 05:54:50;;;;;;;12.38;7.72;;;18.50;99.90;;;;;;5043776;28;20041;-79
2023/06/11 05:57:23;;;;;;;9.60;7.90;;;18.60;99.90;;;;;;5041575;28;20068;-79
2023/06/11 05:59:49;;;;;;;8.30;7.20;;;18.60;99.90;;;;;;5019975;28;20117;-79
2023/06/11 06:02:15;;;;;;;8.82;7.80;;;18.80;99.90;;;;;;5044772;28;20056;-79
2023/06/11 06:04:41;;;;;;;12.68;8.18;;;18.70;99.90;;;;;;5042070;28;20036;-79
2023/06/11 06:07:06;;;;;;;10.50;8.00;;;18.80;99.90;;;;;;5041659;28;20572;-78
2023/06/11 06:09:41;;;;;;;9.93;8.57;;;18.80;99.90;;;;;;5038096;28;20523;-80
2023/06/11 06:12:07;;;;;;;10.25;8.25;;;18.90;99.90;;;;;;5044543;28;20079;-80
2023/06/11 06:14:33;;;;;;;10.27;7.93;;;18.90;99.90;;;;;;5039420;28;20044;-80
2023/06/11 06:16:58;;;;;;;11.68;7.68;;;19.00;99.90;;;;;;5044252;28;20047;-79
2023/06/11 06:19:24;;;;;;;9.07;8.07;;;19.20;99.90;;;;;;5039278;28;20040;-80
2023/06/11 06:21:50;;;;;;;9.07;7.63;;;19.10;99.90;;;;;;5042249;28;20060;-80
2023/06/11 06:24:15;;;;;;;9.70;8.27;;;19.10;99.90;;;;;;5023520;28;20033;-80
2023/06/11 06:26:41;;;;;;;10.73;8.00;;;19.70;99.90;;;;;;5040835;28;20045;-80
2023/06/11 06:29:08;;;;;;;9.15;8.23;;;19.20;99.90;;;;;;5041431;28;20108;-81
2023/06/11 06:31:36;;;;;;;8.52;7.10;;;20.30;99.90;;;;;;5035067;28;20103;-80
2023/06/11 06:34:02;;;;;;;9.48;7.53;;;19.30;99.90;;;;;;5048714;28;20040;-80
2023/06/11 06:36:28;;;;;;;10.30;7.93;;;19.40;99.90;;;;;;5049374;28;20394;-80
2023/06/11 06:38:55;;;;;;;9.18;8.20;;;20.20;99.90;;;;;;5046150;28;20068;-79
2023/06/11 06:41:20;;;;;;;11.18;8.23;;;19.50;99.90;;;;;;5041513;28;20131;-78
2023/06/11 06:43:46;;;;;;;9.15;8.23;;;19.50;99.90;;;;;;5037921;28;20525;-79
2023/06/11 06:46:12;;;;;;;11.07;8.27;;;19.60;99.90;;;;;;5036507;28;20039;-80
2023/06/11 06:48:39;;;;;;;9.52;8.38;;;19.60;99.90;;;;;;5040433;28;20072;-79
2023/06/11 06:51:04;;;;;;;10.70;8.65;;;19.70;99.90;;;;;;5036145;28;20452;-80
2023/06/11 06:53:30;;;;;;;11.70;7.90;;;19.90;99.90;;;;;;5046075;28;20242;-80
2023/06/11 06:55:59;;;;;;;11.18;7.78;;;19.90;99.90;;;;;;5043053;28;20049;-80
2023/06/11 06:58:26;;;;;;;8.65;7.40;;;19.90;99.90;;;;;;5041218;28;20056;-80
2023/06/11 07:00:52;;;;;;;12.73;8.55;;;20.00;99.90;;;;;;5043179;28;20123;-80
2023/06/11 07:03:18;;;;;;;8.18;7.38;;;20.20;99.90;;;;;;5049750;28;20166;-80
2023/06/11 07:05:43;;;;;;;9.77;7.80;;;20.10;99.90;;;;;;5041037;28;20497;-80
2023/06/11 07:08:12;;;;;;;9.52;7.55;;;20.20;99.90;;;;;;5049700;28;20067;-79
2023/06/11 07:10:57;;;;;;;10.98;8.40;;;20.20;99.90;;;;;;5046201;28;20068;-81
2023/06/11 07:13:28;;;;;;;9.25;8.05;;;19.80;99.90;;;;;;5046932;28;20044;-80
2023/06/11 07:15:59;;;;;;;11.25;7.78;;;20.40;99.90;;;;;;5051477;28;20045;-81
2023/06/11 07:18:26;;;;;;;8.23;7.43;;;20.50;99.90;;;;;;5048701;28;20393;-81
2023/06/11 07:20:54;;;;;;;17.00;7.90;;;20.50;99.90;;;;;;5050682;28;20093;-80
2023/06/11 07:23:27;;;;;;;8.25;7.45;;;20.70;99.90;;;;;;5050964;28;20469;-79
2023/06/11 07:25:55;;;;;;;8.07;7.25;;;20.70;99.90;;;;;;5047857;28;20030;-80
2023/06/11 07:28:21;;;;;;;11.93;7.32;;;20.80;99.90;;;;;;5025047;28;20493;-79
2023/06/11 07:30:50;;;;;;;8.70;7.50;;;20.80;99.90;;;;;;5038688;28;20033;-80
2023/06/11 07:33:17;;;;;;;7.93;7.05;;;20.90;99.90;;;;;;5046437;28;20068;-80
2023/06/11 07:35:43;;;;;;;8.20;7.30;;;21.00;99.90;;;;;;5040243;28;20041;-80
2023/06/11 07:38:09;;;;;;;8.73;7.72;;;21.00;99.90;;;;;;5047036;28;20118;-78
2023/06/11 07:40:35;;;;;;;9.23;8.32;;;21.10;99.90;;;;;;5052142;28;20557;-80
2023/06/11 07:43:01;;;;;;;10.80;7.35;;;21.20;99.90;;;;;;5046971;28;20408;-80
2023/06/11 07:45:28;;;;;;;8.63;7.78;;;21.20;99.90;;;;;;5043741;28;20041;-79
2023/06/11 07:47:53;;;;;;;10.38;7.30;;;21.10;99.90;;;;;;5045675;28;20033;-80
2023/06/11 07:50:20;;;;;;;8.15;7.43;;;21.40;99.90;;;;;;5045678;28;20048;-80
2023/06/11 07:52:47;;;;;;;8.23;7.50;;;21.40;99.90;;;;;;5048958;28;20053;-81
2023/06/11 07:55:12;;;;;;;10.73;7.90;;;21.40;99.90;;;;;;5049400;28;20104;-82
2023/06/11 07:57:38;;;;;;;9.55;7.72;;;21.50;99.90;;;;;;5042206;28;20904;-80
2023/06/11 08:00:16;;;;;;;9.07;7.45;;;21.60;99.90;;;;;;5049932;28;20127;-80
2023/06/11 08:02:44;;;;;;;6.80;6.30;;;21.60;99.90;;;;;;5046391;28;20048;-80
2023/06/11 08:05:17;;;;;;;7.93;7.13;;;21.70;99.90;;;;;;5044794;28;20095;-80
2023/06/11 08:07:58;;;;;;;9.13;7.15;;;21.80;99.90;;;;;;5037791;28;20489;-81
2023/06/11 08:10:25;;;;;;;8.25;6.38;;;21.80;99.90;;;;;;5044694;28;20037;-79
2023/06/11 08:12:51;;;;;;;7.20;6.57;;;21.90;99.90;;;;;;5039697;28;20045;-81
2023/06/11 08:15:17;;;;;;;10.35;7.50;;;22.00;99.90;;;;;;5049259;28;20049;-79
2023/06/11 08:17:43;;;;;;;7.93;7.13;;;22.00;99.90;;;;;;5050280;28;20080;-79
2023/06/11 08:20:09;;;;;;;7.70;7.00;;;22.10;99.90;;;;;;5039767;28;20053;-80
2023/06/11 08:22:35;;;;;;;12.45;7.18;;;22.20;99.90;;;;;;5040112;28;20444;-80
2023/06/11 08:25:01;;;;;;;8.73;7.07;;;22.30;99.90;;;;;;5043891;28;20041;-80
2023/06/11 08:27:26;;;;;;;8.48;7.72;;;22.40;99.90;;;;;;5044266;28;20057;-79
2023/06/11 08:29:52;;;;;;;11.57;7.03;;;22.20;99.90;;;;;;5042563;28;20040;-80
2023/06/11 08:32:18;;;;;;;7.88;7.07;;;22.50;99.90;;;;;;5043312;28;20040;-81
2023/06/11 08:34:43;;;;;;;9.55;6.25;;;22.60;99.90;;;;;;5041044;28;20456;-82
2023/06/11 08:37:09;;;;;;;11.48;7.20;;;22.70;99.90;;;;;;5045340;28;20041;-80
2023/06/11 08:39:35;;;;;;;12.48;6.30;;;22.70;99.90;;;;;;5041359;28;20504;-79
2023/06/11 08:42:00;;;;;;;12.02;8.25;;;22.80;99.90;;;;;;5043139;28;20049;-79
2023/06/11 08:44:26;;;;;;;7.78;6.68;;;22.90;99.90;;;;;;5043158;28;20044;-80
2023/06/11 08:46:56;;;;;;;9.68;6.53;;;23.00;99.90;;;;;;5040218;28;20065;-80
2023/06/11 08:49:22;;;;;;;7.47;6.78;;;23.00;99.90;;;;;;5046321;28;20041;-80
2023/06/11 08:51:49;;;;;;;7.88;6.43;;;23.00;99.90;;;;;;5042979;28;20053;-80
2023/06/11 08:54:16;;;;;;;7.47;6.78;;;23.20;99.90;;;;;;5041165;28;20041;-80
2023/06/11 08:56:43;;;;;;;8.68;6.57;;;23.10;99.90;;;;;;5042519;28;20041;-80
2023/06/11 08:59:09;;;;;;;6.63;5.97;;;23.20;99.90;;;;;;5044859;28;20048;-79
2023/06/11 09:01:34;;;;;;;9.65;6.90;;;23.30;99.90;;;;;;5042090;28;20499;-80
2023/06/11 09:04:00;;;;;;;9.43;6.57;;;23.40;99.90;;;;;;5044403;28;20043;-78
2023/06/11 09:06:27;;;;;;;9.63;6.20;;;23.50;99.90;;;;;;5043852;28;20047;-80
2023/06/11 09:09:02;;;;;;;8.07;6.63;;;23.60;99.90;;;;;;5039351;28;20047;-79
2023/06/11 09:11:35;;;;;;;9.52;6.10;;;23.70;99.90;;;;;;5046328;28;20037;-80
2023/06/11 09:14:02;;;;;;;8.77;6.47;;;23.70;99.90;;;;;;5039906;28;20049;-81
2023/06/11 09:16:29;;;;;;;10.13;6.70;;;23.80;99.90;;;;;;5045838;28;20041;-80
2023/06/11 09:18:56;;;;;;;7.70;6.30;;;24.00;99.90;;;;;;5040750;28;20055;-81
2023/06/11 09:21:25;;;;;;;7.07;6.57;;;24.00;99.90;;;;;;5046309;28;20047;-80
2023/06/11 09:23:51;;;;;;;6.50;5.90;;;24.10;99.90;;;;;;5041828;28;20489;-80
2023/06/11 09:26:18;;;;;;;10.23;5.82;;;24.70;99.90;;;;;;5038233;28;20124;-82
2023/06/11 09:28:46;;;;;;;7.43;6.75;;;24.20;99.90;;;;;;5046827;28;20119;-80
2023/06/11 09:31:11;;;;;;;8.65;6.22;;;24.30;99.90;;;;;;5042942;28;20037;-80
2023/06/11 09:33:37;;;;;;;6.88;6.00;;;24.30;99.90;;;;;;5042687;28;20104;-82
2023/06/11 09:36:03;;;;;;;7.63;6.55;;;24.30;99.90;;;;;;5038456;28;20044;-80
2023/06/11 09:38:34;;;;;;;8.60;5.97;;;24.50;99.90;;;;;;5037841;28;20037;-80
2023/06/11 09:40:59;;;;;;;7.38;5.93;;;24.60;99.90;;;;;;5042114;28;20037;-80
2023/06/11 09:43:25;;;;;;;6.82;5.57;;;24.60;99.90;;;;;;5043305;28;20533;-81
2023/06/11 09:45:53;;;;;;;8.88;6.35;;;24.60;99.90;;;;;;5047503;28;20563;-80
2023/06/11 09:48:28;;;;;;;6.88;5.57;;;24.90;99.90;;;;;;5037922;28;20037;-81
2023/06/11 09:50:54;;;;;;;7.28;5.65;;;24.90;99.90;;;;;;5042729;28;20045;-80
2023/06/11 09:53:23;;;;;;;7.35;5.82;;;25.00;99.90;;;;;;5045533;28;20045;-81
2023/06/11 09:55:50;;;;;;;13.45;5.90;;;25.10;99.90;;;;;;5032228;28;20049;-81
2023/06/11 09:58:22;;;;;;;6.63;6.03;;;25.10;99.90;;;;;;5039230;28;20353;-81
2023/06/11 10:01:00;;;;;;;10.18;5.20;;;25.20;99.90;;;;;;5047173;28;20064;-80
2023/06/11 10:03:26;;;;;;;6.15;5.72;;;25.30;99.90;;;;;;5041376;28;20044;-80
2023/06/11 10:05:52;;;;;;;6.60;5.97;;;25.40;99.90;;;;;;5039991;28;20152;-81
2023/06/11 10:08:22;;;;;;;6.65;5.93;;;25.50;99.90;;;;;;5020628;28;20076;-80
2023/06/11 10:10:56;;;;;;;8.15;6.53;;;25.50;99.90;;;;;;5046052;28;20045;-81
2023/06/11 10:13:34;;;;;;;8.55;5.70;;;25.60;99.90;;;;;;5043092;28;20041;-81
2023/06/11 10:16:08;;;;;;;5.82;5.28;;;25.60;99.90;;;;;;5038480;28;20053;-79
2023/06/11 10:18:34;;;;;;;7.95;5.05;;;25.70;99.90;;;;;;5045172;28;20144;-80
2023/06/11 10:21:01;;;;;;;7.40;5.68;;;25.70;99.90;;;;;;5039656;28;20120;-78
2023/06/11 10:23:38;;;;;;;5.93;5.38;;;25.80;99.90;;;;;;5040786;28;20481;-79
2023/06/11 10:26:04;;;;;;;5.97;5.40;;;25.90;99.90;;;;;;5040057;28;20044;-81
2023/06/11 10:28:51;;;;;;;5.80;5.28;;;25.90;99.90;;;;;;5041463;28;20033;-80
2023/06/11 10:31:27;;;;;;;5.53;4.85;;;26.00;99.90;;;;;;5036496;28;20045;-80
2023/06/11 10:34:01;;;;;;;6.15;5.57;;;26.50;99.90;;;;;;5048022;28;20057;-80
2023/06/11 10:36:36;;;;;;;5.68;5.20;;;26.20;99.90;;;;;;5043709;28;20123;-79
2023/06/11 10:39:09;;;;;;;5.55;5.05;;;26.40;99.90;;;;;;5037805;28;20037;-79
2023/06/11 10:41:41;;;;;;;4.75;4.45;;;26.60;99.90;;;;;;5043219;28;20041;-80
2023/06/11 10:44:10;;;;;;;6.85;4.97;;;26.40;99.90;;;;;;5038001;28;20060;-80
2023/06/11 10:46:50;;;;;;;6.97;5.60;;;26.20;99.80;;;;;;5044157;28;20151;-80
2023/06/11 10:49:17;;;;;;;7.45;5.45;;;26.60;99.90;;;;;;5038112;28;20071;-81
2023/06/11 10:51:43;;;;;;;5.22;4.82;;;26.60;99.90;;;;;;5037018;28;20049;-80
2023/06/11 10:54:09;;;;;;;6.20;4.75;;;26.70;99.20;;;;;;5039733;28;20037;-80
2023/06/11 10:56:38;;;;;;;6.13;4.82;;;26.70;99.20;;;;;;5041540;28;20056;-81
2023/06/11 10:59:09;;;;;;;5.78;5.00;;;26.70;99.20;;;;;;5038630;28;20357;-81
2023/06/11 11:01:34;;;;;;;7.57;4.57;;;26.80;99.50;;;;;;5036164;28;20443;-80
2023/06/11 11:04:02;;;;;;;7.22;4.90;;;27.00;99.30;;;;;;5037616;28;20049;-81
2023/06/11 11:06:29;;;;;;;6.15;5.10;;;27.10;98.70;;;;;;5036996;28;20045;-81
2023/06/11 11:08:56;;;;;;;5.05;4.65;;;27.10;98.20;;;;;;5038083;28;20084;-81
2023/06/11 11:11:26;;;;;;;10.05;5.50;;;27.20;98.00;;;;;;5040025;28;20033;-80
2023/06/11 11:13:52;;;;;;;7.80;4.75;;;27.30;98.10;;;;;;5040520;28;20045;-80
2023/06/11 11:16:21;;;;;;;5.13;4.68;;;27.30;97.90;;;;;;5036266;28;20084;-81
2023/06/11 11:18:48;;;;;;;5.45;4.10;;;27.50;97.60;;;;;;5037327;28;20033;-80
2023/06/11 11:21:14;;;;;;;6.03;4.90;;;27.50;96.80;;;;;;5039639;28;20466;-81
2023/06/11 11:23:48;;;;;;;7.10;5.10;;;27.50;96.90;;;;;;5039759;28;20045;-81
2023/06/11 11:26:14;;;;;;;5.40;4.90;;;27.60;97.30;;;;;;5037650;28;20042;-81
2023/06/11 11:28:40;;;;;;;7.55;4.82;;;27.70;97.20;;;;;;5037553;28;20440;-82
2023/06/11 11:31:07;;;;;;;5.97;4.95;;;27.90;96.90;;;;;;5044875;28;20049;-79
2023/06/11 11:33:35;;;;;;;6.03;4.63;;;28.00;96.90;;;;;;5051278;28;20104;-79
2023/06/11 11:36:02;;;;;;;5.25;4.70;;;28.00;96.80;;;;;;5043522;28;20496;-80
2023/06/11 11:38:34;;;;;;;7.60;4.80;;;28.20;96.30;;;;;;5040509;28;20040;-80
2023/06/11 11:41:00;;;;;;;5.25;4.47;;;28.40;95.80;;;;;;5041855;28;20088;-81
2023/06/11 11:43:26;;;;;;;4.63;4.22;;;28.50;94.80;;;;;;5043685;28;20041;-80
2023/06/11 11:45:52;;;;;;;4.13;3.78;;;28.60;94.40;;;;;;5044604;28;20041;-80
2023/06/11 11:48:18;;;;;;;5.75;4.47;;;28.60;94.20;;;;;;5040747;28;20057;-81
2023/06/11 11:50:49;;;;;;;5.20;4.55;;;28.70;94.30;;;;;;5047071;28;20036;-80
2023/06/11 11:53:15;;;;;;;7.82;4.43;;;28.70;93.80;;;;;;5040578;28;20544;-80
2023/06/11 11:55:45;;;;;;;4.53;4.10;;;28.80;93.10;;;;;;5047123;28;20084;-80
2023/06/11 11:58:15;;;;;;;5.40;4.20;;;28.80;93.00;;;;;;5041109;28;20107;-80
2023/06/11 12:00:52;;;;;;;4.80;4.40;;;28.90;93.00;;;;;;5047055;28;20080;-81
2023/06/11 12:03:22;;;;;;;5.43;3.97;;;29.00;93.00;;;;;;5039465;28;20486;-80
2023/06/11 12:06:04;;;;;;;5.10;4.60;;;29.10;92.30;;;;;;5045913;28;20049;-81
2023/06/11 12:08:32;;;;;;;5.55;4.25;;;29.30;91.70;;;;;;5040280;28;20362;-81
2023/06/11 12:10:59;;;;;;;4.82;4.20;;;29.40;92.00;;;;;;5047849;28;20080;-81
2023/06/11 12:13:25;;;;;;;5.15;4.60;;;29.60;92.10;;;;;;5043649;28;20090;-81
2023/06/11 12:15:51;;;;;;;4.18;3.88;;;29.60;91.60;;;;;;5043740;28;20469;-81
2023/06/11 12:18:18;;;;;;;5.75;4.53;;;29.70;91.40;;;;;;5040126;28;20124;-81
2023/06/11 12:20:44;;;;;;;4.38;4.00;;;29.90;90.90;;;;;;5046562;28;20088;-81
2023/06/11 12:23:11;;;;;;;4.82;4.10;;;29.90;90.50;;;;;;5040992;28;20088;-81
2023/06/11 12:25:37;;;;;;;6.85;3.92;;;29.60;89.80;;;;;;5045554;28;20048;-82
2023/06/11 12:28:03;;;;;;;4.95;4.25;;;29.40;89.50;;;;;;5043298;28;20477;-81
2023/06/11 12:30:33;;;;;;;10.57;4.47;;;29.40;89.50;;;;;;5038976;28;20405;-79
2023/06/11 12:32:59;;;;;;;6.20;3.90;;;29.60;89.20;;;;;;5049904;28;20124;-81
2023/06/11 12:35:27;;;;;;;4.05;3.75;;;29.70;88.30;;;;;;5040142;28;20124;-81
2023/06/11 12:37:52;;;;;;;6.50;3.90;;;29.70;88.20;;;;;;5040397;28;20124;-81
2023/06/11 12:40:18;;;;;;;5.32;3.95;;;29.90;88.30;;;;;;5043449;28;20133;-81
2023/06/11 12:42:44;;;;;;;6.40;3.92;;;29.90;87.80;;;;;;5044235;28;20049;-82
2023/06/11 12:45:10;;;;;;;10.85;4.35;;;29.80;86.20;;;;;;5041576;28;20037;-81